SVAX weather

Los Andes Airport
Zulia, Venezuela

Public forecast

Using degrees Celsius for public forecast. Weather courtesy of forecast.io.

METAR (pilot weather report)

Closest report is Alfonso L√≥pez Pumarejo Airport, 47.2 nm (87.5 km) WNW. Retrieved 2019/04/18 23:00 UTC (58 minutes ago):

SKVP 182300Z 06013KT 9999 FEW020 BKN100 32/19 A2981

TAF (pilot weather forecast)

Closest forecast is La Chinita International Airport, 60.6 nm (112.3 km) ENE. Retrieved 2019/04/18 18:06 UTC (6 hours ago):

TAF SVMC 181600Z 1818/1918 02002KT 9000 -DZ BKN016 TX32/19Z TN22/08Z TEMPO 1818/1822 05004KT 9999 FEW016 SCT100